Time;durP1;ratioP1;P1;durP2;ratioP2;P2;SDS_P1;SDS_P2;PMS_P1;PMS_P2;Temp;Humidity;BMP_temperature;BMP_pressure;BME280_temperature;BME280_humidity;BME280_pressure;Samples;Min_cycle;Max_cycle;Signal;HPM_P1;HPM_P2
2021/06/01 00:01:31;;;;;;;;;;;12.10;99.90;;;;;;5029054;28;19988;-56
2021/06/01 00:03:57;;;;;;;;;;;12.10;99.90;;;;;;5029570;28;20007;-54
2021/06/01 00:06:23;;;;;;;;;;;12.10;99.90;;;;;;5029269;28;20028;-56
2021/06/01 00:08:48;;;;;;;;;;;12.10;99.90;;;;;;5028930;28;19912;-58
2021/06/01 00:11:14;;;;;;;;;;;12.10;99.90;;;;;;5025280;28;20342;-55
2021/06/01 00:13:40;;;;;;;;;;;12.00;99.90;;;;;;5029022;28;19909;-57
2021/06/01 00:16:06;;;;;;;;;;;12.00;99.90;;;;;;5029194;28;19909;-52
2021/06/01 00:18:32;;;;;;;;;;;12.00;99.90;;;;;;5029023;28;20051;-55
2021/06/01 00:20:58;;;;;;;;;;;12.00;99.90;;;;;;5028997;28;20163;-52
2021/06/01 00:23:24;;;;;;;;;;;11.90;99.90;;;;;;5028314;28;19909;-54
2021/06/01 00:25:49;;;;;;;;;;;11.80;99.90;;;;;;5028910;28;19916;-55
2021/06/01 00:28:15;;;;;;;;;;;11.80;99.90;;;;;;5028609;28;19909;-55
2021/06/01 00:30:41;;;;;;;;;;;11.70;99.90;;;;;;5028833;28;19913;-54
2021/06/01 00:33:07;;;;;;;;;;;11.70;99.90;;;;;;5028780;28;20251;-55
2021/06/01 00:35:34;;;;;;;;;;;11.60;99.90;;;;;;5028918;28;20410;-54
2021/06/01 00:38:00;;;;;;;;;;;11.60;99.90;;;;;;5028521;28;19956;-55
2021/06/01 00:40:26;;;;;;;;;;;11.60;99.90;;;;;;5028577;28;19909;-55
2021/06/01 00:42:51;;;;;;;;;;;11.60;99.90;;;;;;5028519;28;19935;-53
2021/06/01 00:45:20;;;;;;;;;;;11.50;99.90;;;;;;5027711;28;19913;-57
2021/06/01 00:47:46;;;;;;;;;;;11.50;99.90;;;;;;5028739;28;19913;-56
2021/06/01 00:50:12;;;;;;;;;;;11.50;99.90;;;;;;5028354;28;20055;-54
2021/06/01 00:52:37;;;;;;;;;;;11.40;99.90;;;;;;5028614;28;19920;-56
2021/06/01 00:55:04;;;;;;;;;;;11.40;99.90;;;;;;5027466;28;19917;-53
2021/06/01 00:57:30;;;;;;;;;;;11.50;99.90;;;;;;5028820;28;19909;-54
2021/06/01 00:59:55;;;;;;;;;;;11.50;99.90;;;;;;5025911;28;20390;-58
2021/06/01 01:02:21;;;;;;;;;;;11.50;99.90;;;;;;5026581;28;19943;-52
2021/06/01 01:04:47;;;;;;;;;;;11.50;99.90;;;;;;5027203;28;19914;-51
2021/06/01 01:08:02;;;;;;;;;;;11.40;99.90;;;;;;5028650;28;19909;-53
2021/06/01 01:10:08;;;;;;;;;;;11.50;99.90;;;;;;5026651;28;19924;-55
2021/06/01 01:12:37;;;;;;;;;;;11.40;99.90;;;;;;5027650;28;19932;-51
2021/06/01 01:15:05;;;;;;;;;;;11.40;99.90;;;;;;5027583;28;19909;-55
2021/06/01 01:17:40;;;;;;;;;;;11.40;99.90;;;;;;5027549;28;19913;-54
2021/06/01 01:20:17;;;;;;;;;;;11.40;99.90;;;;;;5027567;28;20285;-51
2021/06/01 01:22:45;;;;;;;;;;;11.40;99.90;;;;;;5028341;28;19909;-52
2021/06/01 01:25:20;;;;;;;;;;;11.30;99.90;;;;;;5026746;28;19987;-53
2021/06/01 01:28:09;;;;;;;;;;;11.30;99.90;;;;;;5027875;28;20012;-55
2021/06/01 01:30:45;;;;;;;;;;;11.30;99.90;;;;;;5027382;28;19913;-54
2021/06/01 01:33:16;;;;;;;;;;;11.30;99.90;;;;;;5027777;28;19909;-54
2021/06/01 01:35:43;;;;;;;;;;;11.30;99.90;;;;;;5027565;28;20358;-52
2021/06/01 01:38:09;;;;;;;;;;;11.20;99.90;;;;;;5027660;28;20063;-54
2021/06/01 01:40:37;;;;;;;;;;;11.10;99.90;;;;;;5008786;28;20010;-54
2021/06/01 01:43:05;;;;;;;;;;;11.10;99.90;;;;;;5013556;28;19920;-55
2021/06/01 01:45:33;;;;;;;;;;;11.10;99.90;;;;;;5027294;28;19971;-52
2021/06/01 01:50:45;;;;;;;;;;;11.10;99.90;;;;;;5027365;28;20467;-54
2021/06/01 01:53:12;;;;;;;;;;;11.00;99.90;;;;;;5027149;28;19935;-53
2021/06/01 01:55:37;;;;;;;;;;;11.00;99.90;;;;;;5026646;28;19991;-54
2021/06/01 01:58:03;;;;;;;;;;;11.00;99.90;;;;;;5027677;28;19997;-55
2021/06/01 02:00:29;;;;;;;;;;;10.90;99.90;;;;;;5027081;28;19943;-54
2021/06/01 02:02:54;;;;;;;;;;;10.90;99.90;;;;;;5027272;28;20486;-54
2021/06/01 02:05:20;;;;;;;;;;;10.90;99.90;;;;;;5026204;28;20343;-53
2021/06/01 02:07:46;;;;;;;;;;;10.90;99.90;;;;;;5027740;28;19913;-56
2021/06/01 02:10:11;;;;;;;;;;;10.80;99.90;;;;;;5026543;28;19917;-52
2021/06/01 02:12:37;;;;;;;;;;;10.80;99.90;;;;;;5027143;28;19936;-57
2021/06/01 02:15:05;;;;;;;;;;;10.80;99.90;;;;;;5027117;28;19960;-54
2021/06/01 02:17:30;;;;;;;;;;;10.80;99.90;;;;;;5014922;28;20009;-53
2021/06/01 02:19:56;;;;;;;;;;;10.80;99.90;;;;;;5024561;28;20024;-57
2021/06/01 02:22:37;;;;;;;;;;;10.80;99.90;;;;;;5024430;28;19921;-56
2021/06/01 02:25:07;;;;;;;;;;;10.80;99.90;;;;;;5018774;28;19917;-51
2021/06/01 02:27:34;;;;;;;;;;;10.70;99.90;;;;;;5011786;28;20000;-54
2021/06/01 02:30:00;;;;;;;;;;;10.70;99.90;;;;;;5012082;28;19955;-53
2021/06/01 02:32:57;;;;;;;;;;;10.70;99.90;;;;;;5015825;28;20350;-55
2021/06/01 02:35:26;;;;;;;;;;;10.70;99.90;;;;;;5020364;28;19949;-58
2021/06/01 02:37:52;;;;;;;;;;;10.60;99.90;;;;;;5030720;28;19909;-56
2021/06/01 02:40:19;;;;;;;;;;;10.60;99.90;;;;;;5030408;28;19998;-55
2021/06/01 02:42:45;;;;;;;;;;;10.60;99.90;;;;;;5030274;28;19910;-53
2021/06/01 02:45:12;;;;;;;;;;;10.60;99.90;;;;;;5030393;28;19913;-55
2021/06/01 02:47:38;;;;;;;;;;;10.50;99.90;;;;;;5029631;28;19913;-52
2021/06/01 02:50:05;;;;;;;;;;;10.50;99.90;;;;;;5042292;22;19925;-46
2021/06/01 02:52:31;;;;;;;;;;;10.50;99.90;;;;;;5029081;28;20008;-46
2021/06/01 02:54:59;;;;;;;;;;;10.50;99.90;;;;;;5028962;28;20012;-46
2021/06/01 02:57:25;;;;;;;;;;;10.40;99.90;;;;;;5030182;28;19956;-45
2021/06/01 02:59:51;;;;;;;;;;;10.40;99.90;;;;;;5029727;28;19932;-46
2021/06/01 03:02:16;;;;;;;;;;;10.30;99.90;;;;;;5029892;28;20509;-45
2021/06/01 03:04:49;;;;;;;;;;;10.30;99.90;;;;;;5030353;28;20295;-48
2021/06/01 03:07:14;;;;;;;;;;;10.30;99.90;;;;;;5030580;28;19909;-45
2021/06/01 03:09:40;;;;;;;;;;;10.20;99.90;;;;;;5029917;28;19913;-45
2021/06/01 03:12:07;;;;;;;;;;;10.20;99.90;;;;;;5030305;28;19909;-44
2021/06/01 03:14:33;;;;;;;;;;;10.20;99.90;;;;;;5029726;28;19913;-47
2021/06/01 03:16:58;;;;;;;;;;;10.20;99.90;;;;;;5030008;28;20043;-45
2021/06/01 03:19:24;;;;;;;;;;;10.20;99.90;;;;;;5029454;28;20364;-46
2021/06/01 03:21:49;;;;;;;;;;;10.10;99.90;;;;;;5029860;28;19909;-45
2021/06/01 03:24:15;;;;;;;;;;;10.10;99.90;;;;;;5029910;28;19935;-45
2021/06/01 03:26:40;;;;;;;;;;;10.00;99.90;;;;;;5029843;28;19909;-46
2021/06/01 03:29:06;;;;;;;;;;;10.00;99.90;;;;;;5029447;28;20028;-45
2021/06/01 03:31:32;;;;;;;;;;;10.00;99.90;;;;;;5029393;28;19913;-45
2021/06/01 03:33:57;;;;;;;;;;;10.00;99.90;;;;;;5029232;28;19917;-45
2021/06/01 03:36:23;;;;;;;;;;;10.00;99.90;;;;;;5028466;28;19935;-44
2021/06/01 03:38:51;;;;;;;;;;;10.00;99.90;;;;;;5029432;28;19910;-46
2021/06/01 03:41:16;;;;;;;;;;;10.00;99.90;;;;;;5027674;28;19909;-45
2021/06/01 03:43:42;;;;;;;;;;;10.00;99.90;;;;;;5028887;28;20505;-46
2021/06/01 03:46:07;;;;;;;;;;;10.10;99.90;;;;;;5028839;28;19996;-45
2021/06/01 03:48:33;;;;;;;;;;;10.10;99.90;;;;;;5029748;28;19920;-46
2021/06/01 03:50:59;;;;;;;;;;;10.10;99.90;;;;;;5029023;28;19917;-47
2021/06/01 03:53:27;;;;;;;;;;;10.20;99.90;;;;;;5029353;28;20395;-47
2021/06/01 03:55:53;;;;;;;;;;;10.20;99.90;;;;;;5028348;28;20439;-46
2021/06/01 03:58:19;;;;;;;;;;;10.30;99.90;;;;;;5029203;28;20000;-44
2021/06/01 04:00:45;;;;;;;;;;;10.30;99.90;;;;;;5029011;28;19909;-45
2021/06/01 04:03:10;;;;;;;;;;;10.30;99.90;;;;;;5029105;28;19909;-46
2021/06/01 04:05:36;;;;;;;;;;;10.40;99.90;;;;;;5029675;28;19909;-45
2021/06/01 04:08:05;;;;;;;;;;;10.50;99.90;;;;;;5028848;28;19919;-45
2021/06/01 04:10:30;;;;;;;;;;;10.50;99.90;;;;;;5027587;28;19952;-45
2021/06/01 04:12:56;;;;;;;;;;;10.50;99.90;;;;;;5027641;28;20402;-45
2021/06/01 04:15:21;;;;;;;;;;;10.60;99.90;;;;;;5029198;28;19910;-45
2021/06/01 04:17:47;;;;;;;;;;;10.60;99.90;;;;;;5028888;28;19963;-45
2021/06/01 04:20:12;;;;;;;;;;;10.60;99.90;;;;;;5028401;28;20550;-45
2021/06/01 04:22:38;;;;;;;;;;;10.60;99.90;;;;;;5028834;28;19971;-45
2021/06/01 04:25:05;;;;;;;;;;;10.70;99.90;;;;;;5028863;28;19972;-45
2021/06/01 04:27:31;;;;;;;;;;;10.70;99.90;;;;;;5028020;28;19954;-49
2021/06/01 04:29:56;;;;;;;;;;;10.80;99.90;;;;;;5028144;28;20016;-45
2021/06/01 04:32:22;;;;;;;;;;;10.80;99.90;;;;;;5028560;28;19909;-46
2021/06/01 04:34:47;;;;;;;;;;;10.90;99.90;;;;;;5028516;28;19909;-46
2021/06/01 04:37:13;;;;;;;;;;;10.90;99.90;;;;;;5028160;28;19947;-48
2021/06/01 04:39:38;;;;;;;;;;;10.90;99.90;;;;;;5027252;28;19953;-44
2021/06/01 04:42:04;;;;;;;;;;;10.90;99.90;;;;;;5028026;28;19910;-44
2021/06/01 04:44:29;;;;;;;;;;;11.00;99.90;;;;;;5027015;28;19913;-45
2021/06/01 04:46:55;;;;;;;;;;;11.00;99.90;;;;;;5027550;28;19913;-45
2021/06/01 04:49:20;;;;;;;;;;;11.10;99.90;;;;;;5027577;28;20015;-47
2021/06/01 04:51:46;;;;;;;;;;;11.10;99.90;;;;;;5028232;28;20411;-45
2021/06/01 04:54:11;;;;;;;;;;;11.20;99.90;;;;;;5028088;28;20397;-46
2021/06/01 04:56:37;;;;;;;;;;;11.20;99.90;;;;;;5027879;28;19917;-46
2021/06/01 04:59:02;;;;;;;;;;;11.20;99.90;;;;;;5027241;28;19982;-45
2021/06/01 05:01:28;;;;;;;;;;;11.30;99.90;;;;;;5027821;28;19920;-46
2021/06/01 05:03:53;;;;;;;;;;;11.30;99.90;;;;;;5027833;28;19916;-48
2021/06/01 05:06:19;;;;;;;;;;;11.40;99.90;;;;;;5027900;28;19916;-45
2021/06/01 05:08:44;;;;;;;;;;;11.50;99.90;;;;;;5028379;28;19909;-48
2021/06/01 05:11:10;;;;;;;;;;;11.60;99.90;;;;;;5027335;28;19925;-46
2021/06/01 05:13:35;;;;;;;;;;;11.60;99.90;;;;;;5028025;28;20405;-49
2021/06/01 05:16:01;;;;;;;;;;;11.70;99.90;;;;;;5027968;28;19910;-48
2021/06/01 05:18:26;;;;;;;;;;;11.80;99.90;;;;;;5026420;28;19920;-50
2021/06/01 05:20:52;;;;;;;;;;;11.80;99.90;;;;;;5027637;28;19909;-47
2021/06/01 05:23:17;;;;;;;;;;;11.90;99.90;;;;;;5027536;28;19992;-48
2021/06/01 05:25:44;;;;;;;;;;;12.00;99.90;;;;;;5026379;28;19957;-48
2021/06/01 05:28:10;;;;;;;;;;;12.10;99.90;;;;;;5026388;28;20003;-46
2021/06/01 05:30:48;;;;;;;;;;;12.20;99.90;;;;;;5027649;28;19935;-44
2021/06/01 05:33:19;;;;;;;;;;;12.20;99.90;;;;;;5027830;28;19940;-50
2021/06/01 05:35:52;;;;;;;;;;;12.40;99.90;;;;;;5029664;28;19915;-52
2021/06/01 05:38:18;;;;;;;;;;;12.40;99.90;;;;;;5028660;28;19920;-52
2021/06/01 05:40:43;;;;;;;;;;;12.50;99.90;;;;;;5027548;28;19909;-46
2021/06/01 05:43:08;;;;;;;;;;;12.70;99.90;;;;;;5028105;28;19936;-51
2021/06/01 05:45:34;;;;;;;;;;;12.80;99.90;;;;;;5027126;28;19920;-47
2021/06/01 05:48:00;;;;;;;;;;;12.90;99.90;;;;;;5028021;28;19992;-45
2021/06/01 05:50:25;;;;;;;;;;;13.20;99.90;;;;;;5027515;28;20623;-48
2021/06/01 05:52:51;;;;;;;;;;;13.40;99.90;;;;;;5030311;28;20100;-45
2021/06/01 05:55:16;;;;;;;;;;;13.70;99.90;;;;;;5031262;28;19916;-44
2021/06/01 05:57:42;;;;;;;;;;;14.00;99.90;;;;;;5031173;28;19952;-44
2021/06/01 06:00:08;;;;;;;;;;;14.20;99.90;;;;;;5031359;28;19995;-48
2021/06/01 06:02:33;;;;;;;;;;;14.40;99.90;;;;;;5029631;28;19972;-48
2021/06/01 06:04:59;;;;;;;;;;;14.70;99.90;;;;;;5031303;28;19967;-45
2021/06/01 06:07:25;;;;;;;;;;;14.90;99.90;;;;;;5031034;28;20414;-44
2021/06/01 06:09:50;;;;;;;;;;;15.30;99.90;;;;;;5030392;28;20008;-45
2021/06/01 06:12:16;;;;;;;;;;;15.60;99.90;;;;;;5014647;28;19921;-44
2021/06/01 06:14:42;;;;;;;;;;;15.90;99.90;;;;;;5028621;28;19967;-44
2021/06/01 06:17:11;;;;;;;;;;;16.20;99.90;;;;;;5030462;28;19952;-45
2021/06/01 06:19:42;;;;;;;;;;;16.50;99.90;;;;;;5030384;28;19943;-49
2021/06/01 06:22:08;;;;;;;;;;;16.70;99.90;;;;;;5031575;28;19991;-46
2021/06/01 06:24:34;;;;;;;;;;;16.90;99.90;;;;;;5029475;28;19913;-45
2021/06/01 06:27:00;;;;;;;;;;;17.10;99.90;;;;;;5031312;28;20002;-45
2021/06/01 06:29:25;;;;;;;;;;;17.20;99.90;;;;;;5030699;28;19919;-46
2021/06/01 06:31:51;;;;;;;;;;;17.40;99.90;;;;;;5031486;28;19909;-45
2021/06/01 06:34:16;;;;;;;;;;;17.60;99.90;;;;;;5031365;28;19948;-45
2021/06/01 06:36:42;;;;;;;;;;;17.70;99.90;;;;;;5031238;28;20291;-44
2021/06/01 06:39:08;;;;;;;;;;;17.90;99.90;;;;;;5030467;28;19913;-49
2021/06/01 06:41:34;;;;;;;;;;;18.10;99.90;;;;;;5030605;28;20372;-45
2021/06/01 06:43:59;;;;;;;;;;;18.30;95.60;;;;;;5030789;28;20023;-49
2021/06/01 06:46:27;;;;;;;;;;;18.50;94.50;;;;;;5030400;28;19909;-48
2021/06/01 06:48:53;;;;;;;;;;;18.80;92.50;;;;;;5030833;28;19909;-45
2021/06/01 06:51:19;;;;;;;;;;;19.00;85.70;;;;;;5029726;28;19917;-48
2021/06/01 06:53:51;;;;;;;;;;;19.20;77.10;;;;;;5030940;28;19913;-48
2021/06/01 06:56:17;;;;;;;;;;;19.40;91.30;;;;;;5034176;28;19974;-46
2021/06/01 06:58:43;;;;;;;;;;;19.60;85.70;;;;;;5031159;28;20326;-45
2021/06/01 07:01:10;;;;;;;;;;;19.80;72.70;;;;;;5029838;28;19952;-44
2021/06/01 07:03:35;;;;;;;;;;;19.80;70.90;;;;;;5029692;28;20358;-47
2021/06/01 07:06:01;;;;;;;;;;;19.90;72.20;;;;;;5030339;28;19948;-46
2021/06/01 07:08:26;;;;;;;;;;;19.90;68.90;;;;;;5030534;28;19917;-45
2021/06/01 07:10:51;;;;;;;;;;;20.10;68.60;;;;;;5029997;28;20367;-47
2021/06/01 07:13:19;;;;;;;;;;;20.20;68.30;;;;;;5026557;28;20334;-47
2021/06/01 07:15:47;;;;;;;;;;;20.30;64.20;;;;;;5026596;28;19909;-45
2021/06/01 07:18:23;;;;;;;;;;;20.40;63.30;;;;;;5029379;28;19953;-45
2021/06/01 07:20:48;;;;;;;;;;;20.40;62.80;;;;;;5029848;28;19910;-45
2021/06/01 07:23:14;;;;;;;;;;;20.40;64.00;;;;;;5029905;28;19970;-43
2021/06/01 07:25:39;;;;;;;;;;;20.40;65.50;;;;;;5030129;28;19913;-44
2021/06/01 07:28:05;;;;;;;;;;;20.50;69.90;;;;;;5029586;28;19909;-43
2021/06/01 07:30:31;;;;;;;;;;;20.50;67.20;;;;;;5029823;28;19920;-44
2021/06/01 07:32:58;;;;;;;;;;;20.60;68.40;;;;;;5030160;28;19917;-44
2021/06/01 07:35:24;;;;;;;;;;;20.50;60.40;;;;;;5029612;28;19913;-45
2021/06/01 07:37:49;;;;;;;;;;;20.30;62.60;;;;;;5030422;28;19932;-43
2021/06/01 07:40:15;;;;;;;;;;;20.30;63.70;;;;;;5029350;28;19909;-44
2021/06/01 07:42:40;;;;;;;;;;;20.10;60.30;;;;;;5030381;28;19991;-45
2021/06/01 07:45:06;;;;;;;;;;;20.00;61.90;;;;;;5030200;28;20314;-44
2021/06/01 07:47:32;;;;;;;;;;;20.10;65.00;;;;;;5029530;28;20375;-46
2021/06/01 07:49:58;;;;;;;;;;;20.30;73.60;;;;;;5029034;28;19971;-45
2021/06/01 07:52:23;;;;;;;;;;;20.40;69.00;;;;;;5029194;28;19919;-45
2021/06/01 07:54:50;;;;;;;;;;;20.60;70.30;;;;;;5029459;28;19916;-46
2021/06/01 07:57:15;;;;;;;;;;;20.70;64.90;;;;;;5029256;28;19909;-45
2021/06/01 07:59:41;;;;;;;;;;;20.80;68.60;;;;;;5029221;28;20403;-47
2021/06/01 08:02:07;;;;;;;;;;;20.90;62.50;;;;;;5028711;28;19909;-45
2021/06/01 08:04:33;;;;;;;;;;;21.10;67.30;;;;;;5028927;28;19964;-45
2021/06/01 08:07:03;;;;;;;;;;;21.20;71.30;;;;;;5027850;28;20626;-45
2021/06/01 08:09:28;;;;;;;;;;;21.30;69.00;;;;;;5027443;28;19920;-46
2021/06/01 08:11:54;;;;;;;;;;;21.30;70.00;;;;;;5028152;28;19916;-44
2021/06/01 08:14:19;;;;;;;;;;;21.40;74.70;;;;;;5028484;28;19917;-45
2021/06/01 08:16:46;;;;;;;;;;;21.50;68.50;;;;;;5028098;28;19910;-43
2021/06/01 08:19:18;;;;;;;;;;;21.30;65.40;;;;;;5027946;28;20014;-45
2021/06/01 08:22:00;;;;;;;;;;;21.30;68.20;;;;;;5032294;28;19957;-46
2021/06/01 08:24:25;;;;;;;;;;;21.20;64.20;;;;;;5026189;28;19916;-45
2021/06/01 08:26:51;;;;;;;;;;;21.30;66.70;;;;;;5028930;28;19909;-47
2021/06/01 08:29:17;;;;;;;;;;;21.20;70.40;;;;;;5027315;28;19913;-46
2021/06/01 08:31:43;;;;;;;;;;;21.30;69.60;;;;;;5029006;28;19971;-45
2021/06/01 08:34:09;;;;;;;;;;;21.30;71.10;;;;;;5027733;28;19909;-46
2021/06/01 08:36:34;;;;;;;;;;;21.40;66.30;;;;;;5028902;28;19910;-46
2021/06/01 08:39:00;;;;;;;;;;;21.50;70.30;;;;;;5028423;28;19913;-48
2021/06/01 08:41:25;;;;;;;;;;;21.70;68.50;;;;;;5028406;28;20004;-46
2021/06/01 08:43:56;;;;;;;;;;;21.70;65.70;;;;;;5028776;28;20304;-45
2021/06/01 08:46:26;;;;;;;;;;;21.90;69.50;;;;;;5028924;28;20513;-45
2021/06/01 08:48:52;;;;;;;;;;;22.20;68.90;;;;;;5028795;28;19909;-46
2021/06/01 08:51:20;;;;;;;;;;;22.30;64.10;;;;;;5066303;22;19932;-57
2021/06/01 08:53:50;;;;;;;;;;;22.10;62.60;;;;;;5047666;28;19912;-53
2021/06/01 08:56:15;;;;;;;;;;;22.20;69.70;;;;;;5048368;28;20367;-57
2021/06/01 08:58:42;;;;;;;;;;;22.10;60.20;;;;;;5048673;28;19909;-58
2021/06/01 09:01:07;;;;;;;;;;;22.20;63.90;;;;;;5045652;28;19916;-56
2021/06/01 09:03:33;;;;;;;;;;;22.30;63.40;;;;;;5032842;28;19913;-57
2021/06/01 09:06:12;;;;;;;;;;;22.60;63.80;;;;;;5044728;28;19908;-55
2021/06/01 09:08:40;;;;;;;;;;;22.80;67.50;;;;;;5049446;28;19987;-54
2021/06/01 09:11:13;;;;;;;;;;;23.20;63.70;;;;;;5047947;28;19924;-53
2021/06/01 09:14:05;;;;;;;;;;;23.50;62.10;;;;;;5048316;28;19909;-57
2021/06/01 09:22:00;;;;;;;;;;;23.60;60.70;;;;;;5052928;28;19916;-55
2021/06/01 09:24:26;;;;;;;;;;;23.80;57.50;;;;;;5047543;28;19940;-56
2021/06/01 09:27:06;;;;;;;;;;;23.60;61.50;;;;;;5048098;28;19909;-56
2021/06/01 09:29:33;;;;;;;;;;;23.60;61.50;;;;;;5030216;28;19925;-56
2021/06/01 09:32:03;;;;;;;;;;;23.90;60.20;;;;;;5015956;28;20398;-53
2021/06/01 09:34:33;;;;;;;;;;;24.20;60.70;;;;;;5032848;28;19909;-54
2021/06/01 09:37:14;;;;;;;;;;;24.20;59.40;;;;;;5035502;28;19916;-56
2021/06/01 09:39:39;;;;;;;;;;;24.30;59.90;;;;;;5026757;28;19940;-56
2021/06/01 09:42:23;;;;;;;;;;;24.00;61.20;;;;;;5014524;28;19944;-57
2021/06/01 09:45:00;;;;;;;;;;;24.00;61.00;;;;;;5012405;28;20464;-54
2021/06/01 09:47:39;;;;;;;;;;;24.50;65.90;;;;;;5037258;28;20003;-58
2021/06/01 09:50:12;;;;;;;;;;;24.50;59.10;;;;;;5015993;28;20005;-54
2021/06/01 09:52:48;;;;;;;;;;;24.70;62.40;;;;;;5018598;28;19914;-57
2021/06/01 09:55:15;;;;;;;;;;;24.90;60.30;;;;;;5031002;28;20526;-52
2021/06/01 09:57:44;;;;;;;;;;;25.00;59.50;;;;;;5042589;28;20288;-56
2021/06/01 10:00:10;;;;;;;;;;;25.00;57.00;;;;;;5039551;28;20302;-51
2021/06/01 10:02:36;;;;;;;;;;;25.00;57.20;;;;;;5036589;28;20593;-52
2021/06/01 10:05:22;;;;;;;;;;;25.30;60.70;;;;;;5042613;28;19916;-52
2021/06/01 10:07:48;;;;;;;;;;;25.00;57.50;;;;;;5041057;28;19994;-52
2021/06/01 10:10:17;;;;;;;;;;;25.20;61.50;;;;;;5041728;28;19924;-49
2021/06/01 10:12:51;;;;;;;;;;;25.00;59.70;;;;;;5040047;28;20004;-54
2021/06/01 10:15:17;;;;;;;;;;;25.10;61.90;;;;;;5042294;28;19913;-48
2021/06/01 10:17:43;;;;;;;;;;;25.40;62.30;;;;;;5030474;28;19909;-49
2021/06/01 10:20:09;;;;;;;;;;;25.60;62.40;;;;;;5043793;28;20389;-50
2021/06/01 10:22:34;;;;;;;;;;;25.90;61.80;;;;;;5038192;28;20537;-50
2021/06/01 10:25:00;;;;;;;;;;;26.10;58.60;;;;;;5042346;28;20336;-49
2021/06/01 10:27:26;;;;;;;;;;;26.00;56.10;;;;;;5039555;28;19982;-52
2021/06/01 10:29:52;;;;;;;;;;;25.90;58.80;;;;;;5046811;28;20035;-52
2021/06/01 10:32:18;;;;;;;;;;;26.00;58.50;;;;;;5043501;28;19995;-54
2021/06/01 10:34:44;;;;;;;;;;;25.50;59.60;;;;;;5050114;28;20364;-53
2021/06/01 10:42:43;;;;;;;;;;;25.20;59.00;;;;;;5050662;28;19924;-57
2021/06/01 10:53:04;;;;;;;;;;;25.20;57.80;;;;;;5050749;28;19959;-59
2021/06/01 10:56:05;;;;;;;;;;;25.60;60.10;;;;;;5050287;28;20603;-58
2021/06/01 10:58:34;;;;;;;;;;;25.10;57.60;;;;;;5067566;28;19908;-57
2021/06/01 11:04:05;;;;;;;;;;;25.00;58.90;;;;;;5042161;28;19917;-62
2021/06/01 11:06:50;;;;;;;;;;;25.10;59.70;;;;;;5031834;28;20016;-58
2021/06/01 11:09:31;;;;;;;;;;;24.90;60.40;;;;;;5046394;28;19922;-59
2021/06/01 11:11:57;;;;;;;;;;;25.30;61.00;;;;;;5050017;28;19924;-60
2021/06/01 11:14:27;;;;;;;;;;;25.30;58.70;;;;;;5049952;28;19939;-59
2021/06/01 11:16:56;;;;;;;;;;;25.50;58.00;;;;;;5050310;28;19909;-57
2021/06/01 11:19:26;;;;;;;;;;;25.60;56.80;;;;;;5045182;28;19912;-58
2021/06/01 11:22:15;;;;;;;;;;;25.50;55.60;;;;;;5048808;28;19996;-59
2021/06/01 11:28:51;;;;;;;;;;;25.60;56.30;;;;;;5049642;28;19913;-58
2021/06/01 11:33:21;;;;;;;;;;;25.70;55.00;;;;;;5054205;28;20355;-58
2021/06/01 11:35:53;;;;;;;;;;;25.40;55.00;;;;;;5046577;28;20034;-56
2021/06/01 11:38:22;;;;;;;;;;;25.40;57.70;;;;;;5049789;28;19912;-60
2021/06/01 11:43:18;;;;;;;;;;;25.50;56.30;;;;;;5049524;28;20353;-59
2021/06/01 11:45:44;;;;;;;;;;;25.50;56.30;;;;;;5049925;28;19951;-57
2021/06/01 11:50:58;;;;;;;;;;;25.50;55.20;;;;;;5049803;28;19940;-57
2021/06/01 11:51:11;;;;;;;;;;;25.70;55.80;;;;;;5048827;28;19917;-60
2021/06/01 11:53:45;;;;;;;;;;;25.90;56.50;;;;;;5049799;28;19909;-58
2021/06/01 11:56:11;;;;;;;;;;;25.80;53.70;;;;;;5049604;28;19908;-59
2021/06/01 12:04:32;;;;;;;;;;;26.50;52.00;;;;;;5041161;28;20012;-59
2021/06/01 12:21:08;;;;;;;;;;;26.10;53.30;;;;;;5047703;28;19935;-59
2021/06/01 12:23:35;;;;;;;;;;;26.10;54.10;;;;;;5046024;28;19908;-56
2021/06/01 12:26:11;;;;;;;;;;;26.30;54.80;;;;;;5041830;28;19909;-59
2021/06/01 12:31:52;;;;;;;;;;;26.60;53.30;;;;;;5049175;28;20616;-58
2021/06/01 12:34:35;;;;;;;;;;;26.50;54.20;;;;;;5048701;28;19909;-60
2021/06/01 12:42:55;;;;;;;;;;;26.50;53.00;;;;;;5050604;28;19944;-60
2021/06/01 12:45:21;;;;;;;;;;;26.30;53.80;;;;;;5014826;28;19968;-56
2021/06/01 13:12:13;;;;;;;;;;;25.50;54.50;;;;;;5030690;28;19917;-56
2021/06/01 13:20:43;;;;;;;;;;;26.30;52.90;;;;;;5040944;28;19924;-60
2021/06/01 13:36:56;;;;;;;;;;;26.30;55.00;;;;;;5037788;28;19936;-58
2021/06/01 13:39:27;;;;;;;;;;;26.20;53.60;;;;;;5015954;28;19936;-60
2021/06/01 13:47:11;;;;;;;;;;;25.90;52.60;;;;;;5032773;28;19936;-60
2021/06/01 13:49:41;;;;;;;;;;;26.00;52.20;;;;;;5035455;28;19917;-60
2021/06/01 13:57:56;;;;;;;;;;;25.90;51.90;;;;;;5038018;28;19909;-59
2021/06/01 14:11:03;;;;;;;;;;;25.10;51.00;;;;;;5032915;28;19920;-59
2021/06/01 14:30:13;;;;;;;;;;;25.30;51.20;;;;;;5048598;28;19932;-61
2021/06/01 15:08:26;;;;;;;;;;;23.90;49.70;;;;;;5006861;28;19913;-45
2021/06/01 16:23:52;;;;;;;;;;;21.90;42.70;;;;;;4999555;28;19963;-49
2021/06/01 16:31:59;;;;;;;;;;;21.70;42.50;;;;;;5011346;28;20375;-48
2021/06/01 17:04:52;;;;;;;;;;;20.80;43.90;;;;;;5004779;28;19997;-46
2021/06/01 17:08:17;;;;;;;;;;;20.80;44.00;;;;;;5008824;28;19914;-47
2021/06/01 17:13:03;;;;;;;;;;;20.70;44.70;;;;;;5009614;28;20390;-50
2021/06/01 17:15:29;;;;;;;;;;;20.70;44.70;;;;;;5009281;28;19914;-46
2021/06/01 17:18:03;;;;;;;;;;;20.60;44.70;;;;;;5009056;28;20277;-47
2021/06/01 17:36:30;;;;;;;;;;;19.90;44.70;;;;;;5011460;28;19933;-48
2021/06/01 17:38:57;;;;;;;;;;;19.80;46.10;;;;;;5009683;28;20392;-47
2021/06/01 17:41:24;;;;;;;;;;;19.70;45.80;;;;;;5008596;28;19910;-46
2021/06/01 17:43:51;;;;;;;;;;;19.70;47.50;;;;;;5008997;28;19949;-48
2021/06/01 17:46:17;;;;;;;;;;;19.60;48.20;;;;;;5009080;28;20288;-47
2021/06/01 17:48:55;;;;;;;;;;;19.60;48.10;;;;;;5044602;28;19964;-47
2021/06/01 17:51:23;;;;;;;;;;;19.50;47.40;;;;;;5012257;28;19961;-47
2021/06/01 17:53:49;;;;;;;;;;;19.40;48.70;;;;;;5011638;28;19909;-48
2021/06/01 17:56:19;;;;;;;;;;;19.20;49.20;;;;;;5011903;28;19913;-48
2021/06/01 17:58:44;;;;;;;;;;;19.20;50.70;;;;;;5012852;28;20366;-47
2021/06/01 18:01:10;;;;;;;;;;;19.10;51.10;;;;;;5010039;28;19914;-47
2021/06/01 18:03:42;;;;;;;;;;;19.10;51.80;;;;;;4995538;28;19909;-48
2021/06/01 18:06:08;;;;;;;;;;;19.10;52.80;;;;;;4999395;28;20442;-48
2021/06/01 18:08:42;;;;;;;;;;;19.00;53.20;;;;;;5001790;28;20004;-49
2021/06/01 18:36:27;;;;;;;;;;;18.50;56.30;;;;;;5011883;28;19921;-48
2021/06/01 19:01:08;;;;;;;;;;;17.90;59.90;;;;;;5010858;28;20403;-51
2021/06/01 19:25:19;;;;;;;;;;;17.60;63.10;;;;;;5019276;28;19991;-50
2021/06/01 19:49:58;;;;;;;;;;;17.00;68.00;;;;;;5012627;28;19984;-47
2021/06/01 19:52:25;;;;;;;;;;;16.90;68.80;;;;;;5010094;28;20407;-46
2021/06/01 19:54:51;;;;;;;;;;;16.80;69.20;;;;;;5009832;28;19914;-48
2021/06/01 19:57:17;;;;;;;;;;;16.70;69.00;;;;;;5010344;28;20265;-46
2021/06/01 19:59:44;;;;;;;;;;;16.60;69.70;;;;;;5009915;28;19910;-48
2021/06/01 20:02:16;;;;;;;;;;;16.50;70.00;;;;;;5042008;28;19960;-46
2021/06/01 20:04:43;;;;;;;;;;;16.40;72.60;;;;;;5010066;28;19909;-48
2021/06/01 20:07:10;;;;;;;;;;;16.30;72.20;;;;;;5009914;28;19914;-48
2021/06/01 20:09:36;;;;;;;;;;;16.20;73.20;;;;;;5009396;28;20494;-46
2021/06/01 20:12:01;;;;;;;;;;;16.10;75.60;;;;;;5009998;28;19909;-50
2021/06/01 20:14:27;;;;;;;;;;;16.00;78.50;;;;;;5010047;28;20455;-45
2021/06/01 20:16:53;;;;;;;;;;;15.90;79.40;;;;;;5010214;28;20040;-46
2021/06/01 20:19:19;;;;;;;;;;;15.80;82.00;;;;;;5009482;28;19909;-48
2021/06/01 20:21:48;;;;;;;;;;;15.60;85.70;;;;;;5009240;28;19910;-48
2021/06/01 20:24:14;;;;;;;;;;;15.50;90.50;;;;;;5009570;28;19914;-46
2021/06/01 20:26:42;;;;;;;;;;;15.50;93.90;;;;;;5009018;28;19988;-46
2021/06/01 20:29:10;;;;;;;;;;;15.40;95.90;;;;;;5040962;28;20032;-49
2021/06/01 20:31:44;;;;;;;;;;;15.40;98.90;;;;;;5009618;28;19956;-50
2021/06/01 20:34:12;;;;;;;;;;;15.30;99.90;;;;;;5002594;28;19957;-46
2021/06/01 20:36:38;;;;;;;;;;;15.30;99.90;;;;;;4987702;28;19921;-45
2021/06/01 20:39:11;;;;;;;;;;;15.10;99.90;;;;;;4991950;28;20004;-46
2021/06/01 20:41:38;;;;;;;;;;;15.10;99.90;;;;;;5008980;28;19937;-47
2021/06/01 20:44:05;;;;;;;;;;;15.10;99.90;;;;;;5008579;28;20306;-47
2021/06/01 20:46:32;;;;;;;;;;;15.00;99.90;;;;;;5009294;28;19953;-46
2021/06/01 20:48:58;;;;;;;;;;;14.90;99.90;;;;;;5009121;28;19917;-47
2021/06/01 20:51:24;;;;;;;;;;;14.90;99.90;;;;;;5041325;22;19924;-58
2021/06/01 20:53:49;;;;;;;;;;;14.90;99.90;;;;;;5048422;28;20291;-58
2021/06/01 20:56:15;;;;;;;;;;;14.70;99.90;;;;;;5047222;28;19913;-59
2021/06/01 20:58:41;;;;;;;;;;;14.60;99.90;;;;;;5047527;28;19909;-59
2021/06/01 21:01:09;;;;;;;;;;;14.50;99.90;;;;;;5044938;28;20005;-57